Time;durP1;ratioP1;P1;durP2;ratioP2;P2;SDS_P1;SDS_P2;PMS_P1;PMS_P2;Temp;Humidity;BMP_temperature;BMP_pressure;BME280_temperature;BME280_humidity;BME280_pressure;Samples;Min_cycle;Max_cycle;Signal;HPM_P1;HPM_P2
2023/03/26 00:01:29;;;;;;;4.27;3.87;;;10.90;99.90;;;;;;5095752;28;20176;-86
2023/03/26 00:03:56;;;;;;;2.97;2.75;;;10.90;99.90;;;;;;5096841;28;20208;-88
2023/03/26 00:06:27;;;;;;;5.93;3.20;;;11.00;99.90;;;;;;5095876;28;20613;-88
2023/03/26 00:08:56;;;;;;;3.35;3.05;;;10.90;99.90;;;;;;5097145;28;20203;-79
2023/03/26 00:11:23;;;;;;;3.60;2.80;;;10.90;99.90;;;;;;5096694;28;20177;-79
2023/03/26 00:13:52;;;;;;;3.15;2.78;;;10.90;99.90;;;;;;5096827;28;20245;-88
2023/03/26 00:16:18;;;;;;;4.15;2.92;;;10.90;99.90;;;;;;5095275;28;20184;-88
2023/03/26 00:18:45;;;;;;;3.30;2.67;;;10.90;99.90;;;;;;5095481;28;20676;-79
2023/03/26 00:21:16;;;;;;;4.03;3.10;;;10.90;99.90;;;;;;5096698;28;20550;-79
2023/03/26 00:23:43;;;;;;;4.28;3.00;;;10.80;99.90;;;;;;5096911;28;20279;-79
2023/03/26 00:26:10;;;;;;;3.83;3.08;;;10.80;99.90;;;;;;5096466;28;20187;-87
2023/03/26 00:28:40;;;;;;;3.33;3.03;;;10.80;99.90;;;;;;5097126;28;20672;-84
2023/03/26 00:31:10;;;;;;;4.15;3.03;;;10.70;99.90;;;;;;5095120;28;20547;-79
2023/03/26 00:33:37;;;;;;;3.20;2.90;;;10.70;99.90;;;;;;5095167;28;20263;-80
2023/03/26 00:36:05;;;;;;;2.75;2.50;;;10.70;99.90;;;;;;5094957;28;20176;-87
2023/03/26 00:38:37;;;;;;;4.15;3.28;;;10.70;99.90;;;;;;5094833;28;20201;-87
2023/03/26 00:41:05;;;;;;;2.78;2.58;;;10.70;99.90;;;;;;5095033;28;20181;-79
2023/03/26 00:43:33;;;;;;;3.80;2.80;;;10.70;99.90;;;;;;5096511;28;20235;-79
2023/03/26 00:45:59;;;;;;;9.30;3.05;;;10.60;99.90;;;;;;5096065;28;20241;-88
2023/03/26 00:48:28;;;;;;;3.00;2.37;;;10.60;99.90;;;;;;5096305;28;20184;-88
2023/03/26 00:50:55;;;;;;;3.10;2.80;;;10.60;99.90;;;;;;5094712;28;20451;-87
2023/03/26 00:53:22;;;;;;;3.25;2.63;;;10.60;99.90;;;;;;5094944;28;20231;-79
2023/03/26 00:55:48;;;;;;;5.55;3.28;;;10.60;99.90;;;;;;5095913;28;20185;-86
2023/03/26 00:58:15;;;;;;;3.03;2.65;;;10.60;99.90;;;;;;5096175;28;20685;-79
2023/03/26 01:00:52;;;;;;;6.32;2.92;;;10.50;99.90;;;;;;5095774;28;20175;-88
2023/03/26 01:03:18;;;;;;;4.47;2.90;;;10.50;99.90;;;;;;5094581;28;20207;-87
2023/03/26 01:05:56;;;;;;;3.22;2.90;;;10.50;99.90;;;;;;5095668;28;20189;-88
2023/03/26 01:08:26;;;;;;;3.15;2.85;;;10.50;99.90;;;;;;5095604;28;20192;-79
2023/03/26 01:11:01;;;;;;;5.70;2.30;;;10.50;99.90;;;;;;5097797;28;20596;-79
2023/03/26 01:13:30;;;;;;;3.75;2.60;;;10.40;99.90;;;;;;5095559;28;20223;-79
2023/03/26 01:16:00;;;;;;;3.60;3.30;;;10.40;99.90;;;;;;5094247;28;20251;-79
2023/03/26 01:18:32;;;;;;;3.83;3.40;;;10.50;99.90;;;;;;5095801;28;20233;-80
2023/03/26 01:21:04;;;;;;;3.90;3.50;;;10.50;99.90;;;;;;5095526;28;20171;-88
2023/03/26 01:23:43;;;;;;;3.00;2.70;;;10.50;99.90;;;;;;5094572;28;20212;-79
2023/03/26 01:26:35;;;;;;;4.18;3.17;;;10.40;99.90;;;;;;5094242;28;20208;-88
2023/03/26 01:29:03;;;;;;;2.53;2.30;;;10.40;99.90;;;;;;5075306;28;20184;-88
2023/03/26 01:31:44;;;;;;;2.50;2.30;;;10.40;99.90;;;;;;5093979;28;20176;-79
2023/03/26 01:34:29;;;;;;;5.35;3.90;;;10.40;99.90;;;;;;5094064;28;20230;-88
2023/03/26 01:37:32;;;;;;;5.90;4.00;;;10.30;99.90;;;;;;5094972;28;20227;-79
2023/03/26 01:40:24;;;;;;;2.55;2.35;;;10.30;99.90;;;;;;5094210;28;20267;-88
2023/03/26 01:43:08;;;;;;;8.52;2.13;;;10.30;99.90;;;;;;5074378;28;20215;-79
2023/03/26 01:45:37;;;;;;;1.98;1.80;;;10.30;99.90;;;;;;5094938;28;20548;-79
2023/03/26 01:48:04;;;;;;;3.95;2.25;;;10.20;99.90;;;;;;5095030;28;20188;-88
2023/03/26 01:50:30;;;;;;;2.90;2.30;;;10.20;99.90;;;;;;5095051;28;20194;-79
2023/03/26 01:52:56;;;;;;;3.87;2.70;;;10.00;99.90;;;;;;5093648;28;20204;-79
2023/03/26 01:55:38;;;;;;;2.40;2.20;;;9.90;99.90;;;;;;5093886;28;20188;-86
2023/03/26 01:58:19;;;;;;;3.20;2.60;;;9.80;99.90;;;;;;5093273;28;20641;-88
2023/03/26 02:00:56;;;;;;;4.82;2.60;;;9.80;99.90;;;;;;5094729;28;20255;-88
2023/03/26 02:03:30;;;;;;;3.45;2.25;;;9.80;99.90;;;;;;5093606;28;20586;-79
2023/03/26 02:06:14;;;;;;;2.85;2.08;;;9.80;99.90;;;;;;5093253;28;20175;-88
2023/03/26 02:08:46;;;;;;;3.63;2.47;;;9.70;99.90;;;;;;5095005;28;20204;-79
2023/03/26 02:11:13;;;;;;;2.20;2.00;;;9.80;99.90;;;;;;5094548;28;20181;-79
2023/03/26 02:13:42;;;;;;;3.33;2.30;;;9.80;99.90;;;;;;5093086;28;20651;-87
2023/03/26 02:16:12;;;;;;;3.10;2.70;;;9.90;99.90;;;;;;5093295;28;20263;-79
2023/03/26 02:18:39;;;;;;;2.33;2.13;;;9.90;99.90;;;;;;5094731;28;20261;-79
2023/03/26 02:21:11;;;;;;;2.80;2.20;;;9.70;99.90;;;;;;5092995;28;20184;-87
2023/03/26 02:23:45;;;;;;;2.75;2.25;;;9.70;99.90;;;;;;5093233;28;20196;-77
2023/03/26 02:26:13;;;;;;;3.17;2.10;;;9.70;99.90;;;;;;5095168;28;20511;-88
2023/03/26 02:28:39;;;;;;;3.00;2.00;;;9.70;99.90;;;;;;5093085;28;20204;-78
2023/03/26 02:31:08;;;;;;;2.08;1.85;;;9.70;99.90;;;;;;5093062;28;20195;-79
2023/03/26 02:33:34;;;;;;;3.85;2.63;;;9.70;99.90;;;;;;5094589;28;20583;-87
2023/03/26 02:36:03;;;;;;;2.92;2.28;;;9.60;99.90;;;;;;5094217;28;20284;-79
2023/03/26 02:38:36;;;;;;;2.28;2.08;;;9.50;99.90;;;;;;5094372;28;20302;-88
2023/03/26 02:41:03;;;;;;;2.90;2.70;;;9.50;99.90;;;;;;5092870;28;20179;-78
2023/03/26 02:43:28;;;;;;;3.03;2.35;;;9.50;99.90;;;;;;5092863;28;20239;-79
2023/03/26 02:45:54;;;;;;;4.13;2.80;;;9.40;99.90;;;;;;5094021;28;20230;-83
2023/03/26 02:48:20;;;;;;;4.30;2.77;;;9.30;99.90;;;;;;5093836;28;20436;-88
2023/03/26 02:50:48;;;;;;;4.73;3.07;;;9.30;99.90;;;;;;5092680;28;20341;-78
2023/03/26 02:53:15;;;;;;;5.45;3.65;;;9.20;99.90;;;;;;5092513;28;20540;-87
2023/03/26 02:55:41;;;;;;;3.40;3.10;;;9.20;99.90;;;;;;5092708;28;20702;-78
2023/03/26 02:58:07;;;;;;;6.13;3.27;;;9.10;99.90;;;;;;5092597;28;20224;-88
2023/03/26 03:00:33;;;;;;;5.33;3.17;;;9.00;99.90;;;;;;5093973;28;20412;-78
2023/03/26 03:03:02;;;;;;;3.83;3.20;;;9.00;99.90;;;;;;5094080;28;20718;-79
2023/03/26 03:05:30;;;;;;;3.22;2.65;;;8.90;99.90;;;;;;5092458;28;20233;-78
2023/03/26 03:07:56;;;;;;;4.43;3.00;;;9.00;99.90;;;;;;5095166;28;20283;-80
2023/03/26 03:10:26;;;;;;;4.25;3.85;;;9.00;99.90;;;;;;5092826;28;20534;-79
2023/03/26 03:12:53;;;;;;;3.03;2.72;;;8.90;99.90;;;;;;5093570;28;20200;-78
2023/03/26 03:15:19;;;;;;;4.57;3.75;;;8.80;99.90;;;;;;5093643;28;20302;-85
2023/03/26 03:17:45;;;;;;;4.82;3.47;;;8.80;99.90;;;;;;5094510;28;20226;-79
2023/03/26 03:20:12;;;;;;;3.30;3.10;;;8.80;99.90;;;;;;5097888;28;20259;-79
2023/03/26 03:22:38;;;;;;;3.92;3.38;;;8.80;99.90;;;;;;5097730;28;20196;-88
2023/03/26 03:25:07;;;;;;;4.57;3.97;;;8.70;99.90;;;;;;5097707;28;20196;-78
2023/03/26 03:27:33;;;;;;;4.70;3.33;;;8.70;99.90;;;;;;5096146;28;20257;-87
2023/03/26 03:29:59;;;;;;;4.00;3.60;;;8.70;99.90;;;;;;5096163;28;20187;-87
2023/03/26 03:32:26;;;;;;;4.67;3.50;;;8.70;99.90;;;;;;5097561;28;20986;-78
2023/03/26 03:34:52;;;;;;;4.35;3.15;;;8.70;99.90;;;;;;5097516;28;20172;-87
2023/03/26 03:37:18;;;;;;;3.23;2.90;;;8.70;99.90;;;;;;5097411;28;20223;-79
2023/03/26 03:39:44;;;;;;;3.78;3.40;;;8.60;99.90;;;;;;5096136;28;20263;-78
2023/03/26 03:42:10;;;;;;;4.32;3.85;;;8.50;99.90;;;;;;5096229;28;20200;-86
2023/03/26 03:44:36;;;;;;;3.42;3.13;;;8.50;99.90;;;;;;5097252;28;20221;-85
2023/03/26 03:47:02;;;;;;;4.43;3.77;;;8.60;99.90;;;;;;5097068;28;20200;-79
2023/03/26 03:49:31;;;;;;;3.40;3.10;;;8.60;99.90;;;;;;5095258;28;20435;-78
2023/03/26 03:51:57;;;;;;;3.92;3.55;;;8.60;99.90;;;;;;5093528;28;20283;-78
2023/03/26 03:54:23;;;;;;;5.10;3.90;;;8.60;99.90;;;;;;5096060;28;20185;-87
2023/03/26 03:56:49;;;;;;;7.40;4.50;;;8.60;99.90;;;;;;5095447;28;20672;-78
2023/03/26 03:59:14;;;;;;;4.78;4.05;;;8.60;99.90;;;;;;5095052;28;20176;-86
2023/03/26 04:01:45;;;;;;;4.80;4.30;;;8.70;99.90;;;;;;5094626;28;20165;-78
2023/03/26 04:04:11;;;;;;;8.93;4.68;;;8.60;99.90;;;;;;5097207;28;20505;-87
2023/03/26 04:06:37;;;;;;;6.88;4.53;;;8.50;99.90;;;;;;5096686;28;20306;-79
2023/03/26 04:09:03;;;;;;;18.17;10.50;;;8.40;99.90;;;;;;5096865;28;20194;-78
2023/03/26 04:11:29;;;;;;;28.27;16.88;;;8.30;99.90;;;;;;5096757;28;20799;-78
2023/03/26 04:13:55;;;;;;;26.73;14.30;;;8.20;99.90;;;;;;5096578;28;20236;-88
2023/03/26 04:16:20;;;;;;;23.37;16.27;;;8.20;99.90;;;;;;5097066;28;20214;-79
2023/03/26 04:18:46;;;;;;;27.93;17.03;;;8.30;99.90;;;;;;5095512;28;20215;-88
2023/03/26 04:21:14;;;;;;;18.67;12.77;;;8.20;99.90;;;;;;5096746;28;20294;-86
2023/03/26 04:23:44;;;;;;;20.48;13.02;;;8.20;99.90;;;;;;5096882;28;20432;-88
2023/03/26 04:26:15;;;;;;;15.98;10.27;;;8.10;99.90;;;;;;5095360;28;20180;-89
2023/03/26 04:28:47;;;;;;;14.98;9.20;;;8.20;99.90;;;;;;5095564;28;20199;-78
2023/03/26 04:31:17;;;;;;;10.00;7.57;;;8.30;99.90;;;;;;5096921;28;20172;-78
2023/03/26 04:33:45;;;;;;;11.55;6.68;;;8.30;99.90;;;;;;5096756;28;20227;-78
2023/03/26 04:36:14;;;;;;;7.63;5.63;;;8.30;99.90;;;;;;5097409;28;20276;-78
2023/03/26 04:38:43;;;;;;;5.78;5.18;;;8.30;99.90;;;;;;5098313;28;20224;-78
2023/03/26 04:41:11;;;;;;;5.63;4.60;;;8.20;99.90;;;;;;5096273;28;20176;-78
2023/03/26 04:43:45;;;;;;;9.85;4.95;;;8.10;99.90;;;;;;5095205;28;20203;-78
2023/03/26 04:46:12;;;;;;;6.65;5.07;;;8.00;99.90;;;;;;5096284;28;20755;-88
2023/03/26 04:48:37;;;;;;;8.55;6.32;;;7.90;99.90;;;;;;5096524;28;20567;-78
2023/03/26 04:51:06;;;;;;;6.80;5.47;;;7.90;99.90;;;;;;5096233;28;20191;-79
2023/03/26 04:53:33;;;;;;;7.60;6.90;;;7.80;99.90;;;;;;5095006;28;20625;-89
2023/03/26 04:56:15;;;;;;;9.10;6.35;;;7.60;99.90;;;;;;5095927;28;20287;-88
2023/03/26 04:58:41;;;;;;;10.82;7.90;;;7.60;99.90;;;;;;5096285;28;20211;-77
2023/03/26 05:01:09;;;;;;;9.57;7.43;;;7.50;99.90;;;;;;5094625;28;20184;-78
2023/03/26 05:03:38;;;;;;;9.35;6.55;;;7.40;99.90;;;;;;5096142;28;20192;-81
2023/03/26 05:06:04;;;;;;;10.05;7.00;;;7.40;99.90;;;;;;5094604;28;20573;-88
2023/03/26 05:08:30;;;;;;;8.40;6.55;;;7.60;99.90;;;;;;5094685;28;20235;-78
2023/03/26 05:10:55;;;;;;;8.73;5.90;;;7.60;99.90;;;;;;5095656;28;20204;-87
2023/03/26 05:13:22;;;;;;;12.33;6.80;;;7.60;99.90;;;;;;5095724;28;20566;-88
2023/03/26 05:15:48;;;;;;;8.15;6.15;;;7.60;99.90;;;;;;5094457;28;20181;-88
2023/03/26 05:18:14;;;;;;;6.85;5.90;;;7.60;99.90;;;;;;5095363;28;20216;-78
2023/03/26 05:20:41;;;;;;;6.57;5.93;;;7.60;99.90;;;;;;5095623;28;20177;-78
2023/03/26 05:23:06;;;;;;;5.57;4.93;;;7.70;99.90;;;;;;5094291;28;20593;-78
2023/03/26 05:25:33;;;;;;;6.30;5.67;;;7.60;99.90;;;;;;5096133;28;20187;-78
2023/03/26 05:28:00;;;;;;;7.07;5.70;;;7.60;99.90;;;;;;5096999;28;20681;-77
2023/03/26 05:30:26;;;;;;;9.88;5.78;;;7.50;99.90;;;;;;5097039;28;20668;-87
2023/03/26 05:32:51;;;;;;;5.40;4.90;;;7.50;99.90;;;;;;5094062;28;20291;-78
2023/03/26 05:35:20;;;;;;;6.20;5.40;;;7.70;99.90;;;;;;5093999;28;20193;-86
2023/03/26 05:37:46;;;;;;;21.20;14.23;;;7.70;99.90;;;;;;5093806;28;20223;-79
2023/03/26 05:40:15;;;;;;;15.00;12.15;;;7.80;99.90;;;;;;5094614;28;20222;-87
2023/03/26 05:42:41;;;;;;;7.10;6.40;;;7.80;99.90;;;;;;5095233;28;20598;-87
2023/03/26 05:45:09;;;;;;;6.67;5.80;;;7.90;99.90;;;;;;5093701;28;20184;-78
2023/03/26 05:47:35;;;;;;;6.90;6.20;;;7.90;99.90;;;;;;5093742;28;20993;-87
2023/03/26 05:50:01;;;;;;;5.83;5.23;;;8.00;99.90;;;;;;5095004;28;20208;-78
2023/03/26 05:52:27;;;;;;;7.53;6.10;;;8.00;99.90;;;;;;5094764;28;20445;-88
2023/03/26 05:54:53;;;;;;;23.42;16.17;;;8.10;99.90;;;;;;5094741;28;20551;-86
2023/03/26 05:57:21;;;;;;;6.80;6.03;;;8.20;99.90;;;;;;5094814;28;20279;-78
2023/03/26 05:59:47;;;;;;;6.70;6.00;;;8.30;99.90;;;;;;5093603;28;20177;-78
2023/03/26 06:02:12;;;;;;;6.93;5.90;;;8.40;99.90;;;;;;5094861;28;20203;-87
2023/03/26 06:04:39;;;;;;;12.23;7.47;;;8.50;99.90;;;;;;5094586;28;20405;-87
2023/03/26 06:07:11;;;;;;;6.88;5.32;;;8.60;99.90;;;;;;5093320;28;20200;-78
2023/03/26 06:09:39;;;;;;;7.18;6.18;;;8.70;99.90;;;;;;5094608;28;20172;-78
2023/03/26 06:12:07;;;;;;;7.07;6.43;;;8.70;99.90;;;;;;5094539;28;20279;-89
2023/03/26 06:14:33;;;;;;;6.88;5.65;;;8.80;99.90;;;;;;5094415;28;20229;-88
2023/03/26 06:16:58;;;;;;;8.60;5.13;;;8.90;99.90;;;;;;5094372;28;20212;-78
2023/03/26 06:19:25;;;;;;;5.80;5.10;;;9.10;99.90;;;;;;5094641;28;20208;-88
2023/03/26 06:21:51;;;;;;;5.90;5.30;;;9.20;99.90;;;;;;5094490;28;20246;-78
2023/03/26 06:24:18;;;;;;;6.00;5.33;;;9.30;99.90;;;;;;5094098;28;20672;-78
2023/03/26 06:26:45;;;;;;;6.00;5.05;;;9.40;99.90;;;;;;5094216;28;20574;-79
2023/03/26 06:29:12;;;;;;;5.45;4.90;;;9.50;99.90;;;;;;5094153;28;20172;-87
2023/03/26 06:31:39;;;;;;;5.05;4.63;;;9.70;99.90;;;;;;5093074;28;20217;-78
2023/03/26 06:34:05;;;;;;;6.10;4.97;;;9.80;99.90;;;;;;5094464;28;20643;-79
2023/03/26 06:36:30;;;;;;;5.40;4.73;;;10.00;99.90;;;;;;5092512;28;20180;-78
2023/03/26 06:38:56;;;;;;;8.47;6.10;;;10.10;99.90;;;;;;5092675;28;20474;-88
2023/03/26 06:41:22;;;;;;;11.97;8.20;;;10.20;99.90;;;;;;5093058;28;20195;-87
2023/03/26 06:43:48;;;;;;;6.23;5.63;;;10.40;99.90;;;;;;5092832;28;20563;-79
2023/03/26 06:46:14;;;;;;;5.50;4.63;;;10.40;99.90;;;;;;5092702;28;20180;-78
2023/03/26 06:48:41;;;;;;;5.72;5.22;;;10.70;99.90;;;;;;5092453;28;20460;-87
2023/03/26 06:51:07;;;;;;;5.40;4.78;;;10.80;99.90;;;;;;5093570;28;20173;-86
2023/03/26 06:53:33;;;;;;;8.07;5.78;;;10.90;99.90;;;;;;5092352;28;20274;-89
2023/03/26 06:55:59;;;;;;;5.23;4.53;;;11.00;99.90;;;;;;5093917;28;20190;-86
2023/03/26 06:58:24;;;;;;;6.30;4.70;;;11.20;99.90;;;;;;5094193;28;20235;-79
2023/03/26 07:00:54;;;;;;;5.13;4.30;;;11.30;99.90;;;;;;5093710;28;20535;-79
2023/03/26 07:03:20;;;;;;;4.93;3.65;;;11.30;99.90;;;;;;5094249;28;20657;-79
2023/03/26 07:05:46;;;;;;;4.30;3.63;;;11.50;99.90;;;;;;5093848;28;20157;-89
2023/03/26 07:08:12;;;;;;;6.07;4.65;;;11.60;99.90;;;;;;5093772;28;20624;-88
2023/03/26 07:10:38;;;;;;;5.33;3.93;;;11.70;99.90;;;;;;5092512;28;20180;-87
2023/03/26 07:13:04;;;;;;;4.87;2.90;;;12.00;99.90;;;;;;5092311;28;20449;-78
2023/03/26 07:15:30;;;;;;;3.63;3.20;;;12.10;99.90;;;;;;5093760;28;20410;-79
2023/03/26 07:17:55;;;;;;;4.47;4.07;;;12.10;99.90;;;;;;5092396;28;20614;-79
2023/03/26 07:20:21;;;;;;;4.57;3.20;;;12.20;99.90;;;;;;5092649;28;20196;-79
2023/03/26 07:22:47;;;;;;;3.17;2.88;;;12.30;99.90;;;;;;5093597;28;20782;-79
2023/03/26 07:25:14;;;;;;;3.43;2.80;;;12.40;99.90;;;;;;5092500;28;20176;-79
2023/03/26 07:27:59;;;;;;;3.07;2.77;;;12.60;99.90;;;;;;5094369;28;20933;-87
2023/03/26 07:30:33;;;;;;;2.80;2.60;;;12.80;99.90;;;;;;5092157;28;20417;-90
2023/03/26 07:33:04;;;;;;;3.43;3.13;;;13.00;99.90;;;;;;5092364;28;20447;-79
2023/03/26 07:35:45;;;;;;;3.40;2.90;;;13.20;99.90;;;;;;5091147;28;20425;-88
2023/03/26 07:38:29;;;;;;;2.70;2.50;;;13.30;99.90;;;;;;5092192;28;20837;-80
2023/03/26 07:41:24;;;;;;;4.20;3.50;;;13.50;99.90;;;;;;5092134;28;20451;-79
2023/03/26 07:44:08;;;;;;;3.00;2.60;;;13.70;99.90;;;;;;5091630;28;20441;-79
2023/03/26 07:46:35;;;;;;;2.40;2.20;;;13.90;99.90;;;;;;5089864;28;20992;-88
2023/03/26 07:49:03;;;;;;;2.30;2.10;;;14.00;99.90;;;;;;5090021;28;20796;-88
2023/03/26 07:51:29;;;;;;;2.67;2.10;;;14.20;99.90;;;;;;5090119;28;20926;-79
2023/03/26 07:53:57;;;;;;;3.30;2.17;;;14.20;99.90;;;;;;5091224;28;20945;-79
2023/03/26 07:56:33;;;;;;;2.17;1.97;;;14.30;99.90;;;;;;5089890;28;20416;-79
2023/03/26 07:59:06;;;;;;;3.03;2.00;;;14.40;99.90;;;;;;5092950;28;20408;-89
2023/03/26 08:01:43;;;;;;;2.10;1.90;;;14.50;99.90;;;;;;5092020;28;20413;-79
2023/03/26 08:04:36;;;;;;;2.53;2.03;;;14.60;99.90;;;;;;5094625;28;20507;-89
2023/03/26 08:07:14;;;;;;;1.50;1.40;;;14.60;99.90;;;;;;5095442;28;20451;-79
2023/03/26 08:10:05;;;;;;;1.87;1.77;;;14.70;99.90;;;;;;5097239;28;20397;-79
2023/03/26 08:13:01;;;;;;;2.53;2.03;;;14.70;99.90;;;;;;5096910;28;20436;-88
2023/03/26 08:15:43;;;;;;;2.53;1.30;;;15.00;99.90;;;;;;5076208;28;20445;-90
2023/03/26 08:18:34;;;;;;;2.10;1.90;;;15.20;99.90;;;;;;5075086;28;20481;-89
2023/03/26 08:21:12;;;;;;;2.70;2.03;;;15.30;99.90;;;;;;5075069;28;20427;-79
2023/03/26 08:23:54;;;;;;;1.77;1.57;;;15.40;99.90;;;;;;5076738;28;20504;-79
2023/03/26 08:26:56;;;;;;;1.70;1.60;;;15.50;99.90;;;;;;5076949;28;20428;-79
2023/03/26 08:29:40;;;;;;;2.80;2.00;;;15.80;99.90;;;;;;5075541;28;20437;-89
2023/03/26 08:32:14;;;;;;;2.70;1.40;;;16.70;99.90;;;;;;5075307;28;20445;-87
2023/03/26 08:34:40;;;;;;;5.27;4.73;;;17.90;99.90;;;;;;5074897;28;20419;-80
2023/03/26 08:37:06;;;;;;;2.50;2.10;;;19.10;99.90;;;;;;5075982;28;20474;-80
2023/03/26 08:39:32;;;;;;;2.47;2.27;;;20.10;98.40;;;;;;5076010;28;20264;-88
2023/03/26 08:42:18;;;;;;;1.53;1.10;;;21.00;96.20;;;;;;5075809;28;20860;-80
2023/03/26 08:45:17;;;;;;;1.43;1.33;;;22.00;93.70;;;;;;5076069;28;20181;-89
2023/03/26 08:48:14;;;;;;;1.30;1.10;;;22.90;91.40;;;;;;5075851;28;20437;-89
2023/03/26 08:51:26;;;;;;;1.10;0.97;;;23.60;87.30;;;;;;5074463;28;20422;-86
2023/03/26 08:54:05;;;;;;;1.30;1.20;;;24.60;83.50;;;;;;5074661;28;20526;-89
2023/03/26 08:56:43;;;;;;;0.90;0.80;;;25.20;79.90;;;;;;5074153;28;20417;-88
2023/03/26 08:59:35;;;;;;;5.27;1.90;;;25.50;76.90;;;;;;5074632;28;20834;-81
2023/03/26 09:02:14;;;;;;;11.10;10.10;;;25.30;76.20;;;;;;5075567;28;20441;-81
2023/03/26 09:05:11;;;;;;;4.50;3.07;;;25.00;75.60;;;;;;5075718;28;20460;-81
2023/03/26 09:07:47;;;;;;;1.23;1.13;;;24.60;73.60;;;;;;5074299;28;20441;-81
2023/03/26 09:10:30;;;;;;;2.70;1.60;;;24.30;71.90;;;;;;5075579;28;20515;-89
2023/03/26 09:13:45;;;;;;;0.93;0.73;;;24.10;72.20;;;;;;5074352;28;20455;-80
2023/03/26 09:16:36;;;;;;;1.00;0.90;;;24.00;74.70;;;;;;5075004;28;20418;-88
2023/03/26 09:19:36;;;;;;;2.40;1.40;;;24.20;75.70;;;;;;5074215;28;20441;-90
2023/03/26 09:22:26;;;;;;;5.33;2.43;;;24.00;75.80;;;;;;5074261;28;20484;-88
2023/03/26 09:24:58;;;;;;;2.17;2.00;;;22.30;77.50;;;;;;5075121;28;20407;-89
2023/03/26 09:27:48;;;;;;;1.60;1.43;;;21.60;79.90;;;;;;5075221;28;20430;-88
2023/03/26 09:30:32;;;;;;;2.13;1.43;;;21.20;80.30;;;;;;5073910;28;20414;-80
2023/03/26 09:33:08;;;;;;;1.73;1.40;;;21.40;80.90;;;;;;5073564;28;20450;-87
2023/03/26 09:35:43;;;;;;;4.10;2.80;;;22.00;80.80;;;;;;5074838;28;20410;-80
2023/03/26 09:38:29;;;;;;;3.80;2.50;;;22.00;79.60;;;;;;5074679;28;21086;-87
2023/03/26 09:41:06;;;;;;;1.83;1.23;;;22.00;79.70;;;;;;5074766;28;20493;-88
2023/03/26 09:43:56;;;;;;;2.07;1.40;;;22.70;78.60;;;;;;5075238;28;20429;-90
2023/03/26 09:46:28;;;;;;;1.43;1.07;;;23.30;76.60;;;;;;5074785;28;20814;-88
2023/03/26 09:49:09;;;;;;;1.70;1.20;;;23.30;74.60;;;;;;5073239;28;20446;-87
2023/03/26 09:51:35;;;;;;;2.50;2.03;;;23.80;74.10;;;;;;5075056;28;20451;-87
2023/03/26 09:54:28;;;;;;;1.00;0.90;;;23.60;73.70;;;;;;5074729;28;20441;-81
2023/03/26 09:57:22;;;;;;;3.83;1.50;;;23.40;74.60;;;;;;5074749;28;20476;-89
2023/03/26 10:00:14;;;;;;;1.60;1.20;;;22.50;77.30;;;;;;5073293;28;20496;-80
2023/03/26 10:03:07;;;;;;;2.23;1.33;;;22.50;76.40;;;;;;5062323;28;20453;-81
2023/03/26 10:06:02;;;;;;;2.97;2.30;;;22.70;76.40;;;;;;5073116;28;20439;-80
2023/03/26 10:08:34;;;;;;;1.53;1.20;;;22.60;76.60;;;;;;5073214;28;20535;-90
2023/03/26 10:11:46;;;;;;;1.40;1.30;;;22.20;76.90;;;;;;5074394;28;20423;-88
2023/03/26 10:14:16;;;;;;;1.83;1.60;;;21.50;79.10;;;;;;5081588;28;20469;-88
2023/03/26 10:17:19;;;;;;;2.60;1.00;;;20.90;78.70;;;;;;5094267;28;20404;-87
2023/03/26 10:19:57;;;;;;;2.70;2.03;;;20.30;77.60;;;;;;5094514;28;20497;-88
2023/03/26 10:22:50;;;;;;;1.57;1.37;;;20.00;78.50;;;;;;5094698;28;20782;-80
2023/03/26 10:25:28;;;;;;;1.97;1.60;;;20.00;77.90;;;;;;5094459;28;20405;-89
2023/03/26 10:28:08;;;;;;;1.30;1.20;;;20.00;79.50;;;;;;5092839;28;20447;-87
2023/03/26 10:31:20;;;;;;;1.20;1.00;;;20.10;78.30;;;;;;5093027;28;20463;-80
2023/03/26 10:33:49;;;;;;;2.43;2.10;;;20.40;77.10;;;;;;5083920;28;20464;-80
2023/03/26 10:36:17;;;;;;;1.83;1.50;;;20.40;78.40;;;;;;5092943;28;20946;-88
2023/03/26 10:39:10;;;;;;;3.10;2.90;;;20.30;76.60;;;;;;5092815;28;20481;-88
2023/03/26 10:41:55;;;;;;;2.00;1.67;;;20.40;77.80;;;;;;5092589;28;20440;-80
2023/03/26 10:44:26;;;;;;;1.93;1.10;;;19.90;77.60;;;;;;5094108;28;20404;-88
2023/03/26 10:47:25;;;;;;;1.67;1.27;;;19.50;77.60;;;;;;5094996;28;20448;-89
2023/03/26 10:50:15;;;;;;;1.67;1.20;;;19.50;78.00;;;;;;5093915;28;20393;-80
2023/03/26 10:52:50;;;;;;;0.80;0.80;;;19.30;77.20;;;;;;5093985;28;20476;-81
2023/03/26 10:55:21;;;;;;;1.60;1.43;;;19.40;76.60;;;;;;5094000;28;20389;-80
2023/03/26 10:57:56;;;;;;;1.63;1.40;;;19.70;76.80;;;;;;5092898;28;20491;-88
2023/03/26 11:00:24;;;;;;;2.20;1.90;;;19.70;75.80;;;;;;5092586;28;20860;-87
2023/03/26 11:03:08;;;;;;;1.97;1.17;;;19.60;75.10;;;;;;5092566;28;20448;-80
2023/03/26 11:06:03;;;;;;;1.83;1.20;;;19.80;74.30;;;;;;5092483;28;20485;-87
2023/03/26 11:08:56;;;;;;;7.40;5.43;;;20.10;73.70;;;;;;5094205;28;20527;-88
2023/03/26 11:11:41;;;;;;;1.57;1.13;;;20.20;74.40;;;;;;5093905;28;20808;-87
2023/03/26 11:14:34;;;;;;;1.10;0.90;;;20.30;74.50;;;;;;5093787;28;20486;-80
2023/03/26 11:17:07;;;;;;;1.40;1.10;;;20.30;73.00;;;;;;5092364;28;20463;-88
2023/03/26 11:19:47;;;;;;;2.63;1.00;;;20.50;72.50;;;;;;5092805;28;20433;-87
2023/03/26 11:22:30;;;;;;;1.33;0.70;;;20.30;72.30;;;;;;5092548;28;20810;-88
2023/03/26 11:25:15;;;;;;;0.93;0.83;;;19.80;72.00;;;;;;5093722;28;20405;-80
2023/03/26 11:28:08;;;;;;;2.10;0.70;;;19.80;73.10;;;;;;5094356;28;20790;-81
2023/03/26 11:31:12;;;;;;;1.73;1.10;;;19.70;73.00;;;;;;5094961;28;20397;-80
2023/03/26 11:33:46;;;;;;;2.13;0.67;;;19.60;73.90;;;;;;5032064;28;21076;-87
2023/03/26 11:36:35;;;;;;;1.47;1.17;;;19.70;72.40;;;;;;5048761;28;20418;-89
2023/03/26 11:39:05;;;;;;;1.10;1.10;;;19.80;73.20;;;;;;5072600;28;20775;-80
2023/03/26 11:41:31;;;;;;;1.00;0.90;;;19.90;73.90;;;;;;5096398;28;20405;-88
2023/03/26 11:44:06;;;;;;;1.73;1.20;;;19.90;74.50;;;;;;5095147;28;20488;-80
2023/03/26 11:46:36;;;;;;;1.00;0.90;;;19.80;74.00;;;;;;5093838;28;20193;-80
2023/03/26 11:49:09;;;;;;;1.60;0.80;;;19.80;74.10;;;;;;5095308;28;20453;-80
2023/03/26 11:51:37;;;;;;;2.80;1.30;;;20.00;74.00;;;;;;5097153;28;20731;-87
2023/03/26 11:54:05;;;;;;;1.10;0.50;;;20.00;73.60;;;;;;5097244;28;20909;-88
2023/03/26 11:56:32;;;;;;;1.10;0.80;;;20.10;73.00;;;;;;5095582;28;20405;-87
2023/03/26 11:59:13;;;;;;;1.80;0.90;;;20.20;72.50;;;;;;5095837;28;20468;-85
2023/03/26 12:02:04;;;;;;;1.23;1.10;;;20.30;74.10;;;;;;5097003;28;20959;-80
2023/03/26 12:04:34;;;;;;;0.97;0.80;;;20.50;72.40;;;;;;5097067;28;20419;-80
2023/03/26 12:07:31;;;;;;;3.93;1.23;;;20.40;72.20;;;;;;5097038;28;20940;-88
2023/03/26 12:09:59;;;;;;;1.70;0.83;;;20.10;71.80;;;;;;5096951;28;20451;-80
2023/03/26 12:12:28;;;;;;;1.77;1.67;;;19.90;73.00;;;;;;5095511;28;20956;-84
2023/03/26 12:14:54;;;;;;;0.90;0.80;;;19.70;71.50;;;;;;5096835;28;21107;-89
2023/03/26 12:17:32;;;;;;;1.80;0.70;;;19.60;72.50;;;;;;5098076;28;20517;-88
2023/03/26 12:19:58;;;;;;;0.70;0.70;;;19.70;72.30;;;;;;5095302;28;20180;-88
2023/03/26 12:22:40;;;;;;;0.70;0.70;;;19.80;71.10;;;;;;5084709;28;20942;-87
2023/03/26 12:25:14;;;;;;;4.00;1.40;;;19.90;71.40;;;;;;5090821;28;20994;-88
2023/03/26 12:27:46;;;;;;;0.90;0.90;;;19.90;71.20;;;;;;5094586;28;20790;-88
2023/03/26 12:30:26;;;;;;;5.43;2.30;;;19.60;71.50;;;;;;5094656;28;20676;-89
2023/03/26 12:32:58;;;;;;;3.23;1.50;;;19.60;72.90;;;;;;5089213;28;20520;-87
2023/03/26 12:35:28;;;;;;;2.53;1.57;;;19.70;72.30;;;;;;5092575;28;20894;-80
2023/03/26 12:37:56;;;;;;;1.47;1.20;;;19.90;72.70;;;;;;5091258;28;20510;-81
2023/03/26 12:40:33;;;;;;;2.37;2.17;;;20.00;71.10;;;;;;5093399;28;20400;-89
2023/03/26 12:43:06;;;;;;;0.60;0.57;;;19.80;71.60;;;;;;5092230;28;20507;-88
2023/03/26 12:45:42;;;;;;;1.90;1.60;;;19.70;70.10;;;;;;5089848;28;20409;-79
2023/03/26 12:48:14;;;;;;;1.50;1.10;;;19.90;69.90;;;;;;5089909;28;20457;-80
2023/03/26 12:50:58;;;;;;;1.87;1.60;;;19.90;70.40;;;;;;5088945;28;20417;-79
2023/03/26 12:53:47;;;;;;;3.80;1.00;;;19.60;69.80;;;;;;5091646;28;20515;-79
2023/03/26 12:56:46;;;;;;;3.13;2.00;;;19.50;70.10;;;;;;5089911;28;20481;-79
2023/03/26 12:59:31;;;;;;;1.00;0.87;;;19.70;70.30;;;;;;5077250;28;20549;-80
2023/03/26 13:02:28;;;;;;;1.27;0.70;;;19.50;70.10;;;;;;5091696;28;20444;-79
2023/03/26 13:05:33;;;;;;;1.60;0.80;;;19.40;70.70;;;;;;5093176;28;20467;-79
2023/03/26 13:08:05;;;;;;;1.10;0.70;;;19.50;70.10;;;;;;5092163;28;20887;-80
2023/03/26 13:10:48;;;;;;;1.23;0.83;;;19.70;70.30;;;;;;5092163;28;20420;-79
2023/03/26 13:13:26;;;;;;;1.17;1.07;;;19.70;69.60;;;;;;5093502;28;20453;-79
2023/03/26 13:15:59;;;;;;;0.93;0.80;;;19.80;69.60;;;;;;5094956;28;20424;-80
2023/03/26 13:18:43;;;;;;;0.77;0.53;;;19.80;69.60;;;;;;5093681;28;20480;-80
2023/03/26 13:21:11;;;;;;;0.80;0.70;;;19.70;69.70;;;;;;5094903;28;20398;-80
2023/03/26 13:24:02;;;;;;;0.77;0.70;;;19.70;70.50;;;;;;5093532;28;20471;-87
2023/03/26 13:26:34;;;;;;;1.43;1.30;;;19.90;70.10;;;;;;5094306;28;20522;-90